createdAt,value
2017-10-17T00:00:38.180Z,101978.91
2017-10-17T00:03:06.631Z,101982.03
2017-10-17T00:05:35.235Z,101979.98
2017-10-17T00:08:04.470Z,101982.58
2017-10-17T00:10:32.909Z,101977.83
2017-10-17T00:13:02.254Z,101980.47
2017-10-17T00:15:30.692Z,101983.94
2017-10-17T00:17:59.928Z,101983.06
2017-10-17T00:20:28.414Z,101981.82
2017-10-17T00:22:56.898Z,101980.18
2017-10-17T00:25:25.342Z,101978.50
2017-10-17T00:27:54.685Z,101984.22
2017-10-17T00:30:29.121Z,101982.83
2017-10-17T00:33:03.110Z,101979.00
2017-10-17T00:38:29.364Z,101978.23
2017-10-17T00:40:57.810Z,101974.34
2017-10-17T00:43:30.485Z,101974.77
2017-10-17T00:46:01.263Z,101971.26
2017-10-17T00:48:29.730Z,101966.98
2017-10-17T00:53:55.792Z,101969.09
2017-10-17T00:56:24.228Z,101963.91
2017-10-17T00:58:53.453Z,101961.33
2017-10-17T01:01:21.959Z,101957.53
2017-10-17T01:03:50.427Z,101960.99
2017-10-17T01:06:18.870Z,101957.58
2017-10-17T01:08:48.105Z,101958.11
2017-10-17T01:11:16.552Z,101950.81
2017-10-17T01:13:45.767Z,101948.27
2017-10-17T01:16:14.225Z,101952.06
2017-10-17T01:18:42.678Z,101949.95
2017-10-17T01:21:15.718Z,101953.50
2017-10-17T01:26:51.821Z,101939.34
2017-10-17T01:29:29.526Z,101941.45
2017-10-17T01:31:58.112Z,101940.63
2017-10-17T01:34:41.079Z,101941.94
2017-10-17T01:37:09.608Z,101935.84
2017-10-17T01:39:48.805Z,101935.50
2017-10-17T01:42:19.895Z,101936.79
2017-10-17T01:44:49.201Z,101939.34
2017-10-17T01:47:18.394Z,101938.91
2017-10-17T01:49:48.211Z,101931.51
2017-10-17T01:52:16.683Z,101927.53
2017-10-17T01:55:06.674Z,101931.42
2017-10-17T01:57:47.374Z,101925.32
2017-10-17T02:00:16.417Z,101921.82
2017-10-17T02:02:44.926Z,101923.49
2017-10-17T02:05:13.382Z,101920.91
2017-10-17T02:07:53.529Z,101919.94
2017-10-17T02:10:22.745Z,101911.58
2017-10-17T02:12:51.209Z,101913.27
2017-10-17T02:15:20.423Z,101910.94
2017-10-17T02:18:27.316Z,101913.90
2017-10-17T02:21:07.475Z,101908.06
2017-10-17T02:23:35.954Z,101906.77
2017-10-17T02:26:23.793Z,101914.87
2017-10-17T02:29:03.533Z,101920.86
2017-10-17T02:31:32.781Z,101919.14
2017-10-17T02:34:23.757Z,101922.16
2017-10-17T02:36:52.213Z,101916.47
2017-10-17T02:39:20.677Z,101925.11
2017-10-17T02:41:49.885Z,101910.34
2017-10-17T02:44:18.344Z,101914.55
2017-10-17T02:46:49.182Z,101914.55
2017-10-17T02:49:19.344Z,101911.48
2017-10-17T02:51:47.835Z,101905.42
2017-10-17T02:54:16.302Z,101899.75
2017-10-17T02:56:44.742Z,101902.28
2017-10-17T02:59:14.922Z,101899.69
2017-10-17T03:01:55.021Z,101886.70
2017-10-17T03:04:26.769Z,101888.92
2017-10-17T03:06:55.210Z,101894.53
2017-10-17T03:09:23.678Z,101897.14
2017-10-17T03:11:52.122Z,101897.03
2017-10-17T03:14:35.806Z,101892.62
2017-10-17T03:17:04.255Z,101899.05
2017-10-17T03:19:33.481Z,101896.02
2017-10-17T03:22:04.309Z,101892.50
2017-10-17T03:24:48.011Z,101892.45
2017-10-17T03:27:16.554Z,101884.27
2017-10-17T03:29:45.033Z,101881.58
2017-10-17T03:32:13.503Z,101882.42
2017-10-17T03:34:52.826Z,101890.22
2017-10-17T03:37:35.693Z,101890.59
2017-10-17T03:40:26.653Z,101887.55
2017-10-17T03:43:01.335Z,101884.03
2017-10-17T03:45:29.898Z,101883.96
2017-10-17T03:48:01.343Z,101887.36
2017-10-17T03:50:44.783Z,101887.61
2017-10-17T03:56:24.884Z,101877.86
2017-10-17T03:58:55.589Z,101877.81
2017-10-17T04:01:33.973Z,101884.66
2017-10-17T04:07:26.674Z,101879.48
2017-10-17T04:13:15.351Z,101884.66
2017-10-17T04:15:43.793Z,101882.08
2017-10-17T04:18:26.546Z,101890.30
2017-10-17T04:20:58.421Z,101886.05
2017-10-17T04:23:31.291Z,101876.44
2017-10-17T04:26:19.233Z,101880.64
2017-10-17T04:28:48.470Z,101872.77
2017-10-17T04:31:28.486Z,101879.19
2017-10-17T04:37:19.205Z,101866.14
2017-10-17T04:39:47.684Z,101865.76
2017-10-17T04:45:47.337Z,101870.87
2017-10-17T04:52:10.098Z,101871.75
2017-10-17T04:54:55.133Z,101871.75
2017-10-17T04:57:26.827Z,101864.09
2017-10-17T05:00:12.613Z,101863.62
2017-10-17T05:06:09.013Z,101859.33
2017-10-17T05:09:02.993Z,101861.09
2017-10-17T05:11:32.148Z,101862.44
2017-10-17T05:17:16.940Z,101858.54
2017-10-17T05:19:50.674Z,101860.27
2017-10-17T05:22:23.557Z,101861.99
2017-10-17T05:24:52.631Z,101863.17
2017-10-17T05:27:32.879Z,101863.96
2017-10-17T05:30:04.843Z,101865.70
2017-10-17T05:32:33.331Z,101869.17
2017-10-17T05:35:01.915Z,101874.37
2017-10-17T05:37:30.363Z,101881.80
2017-10-17T05:40:01.007Z,101885.75
2017-10-17T05:42:29.505Z,101889.21
2017-10-17T05:44:57.995Z,101899.24
2017-10-17T05:50:56.885Z,101898.37
2017-10-17T05:53:25.333Z,101895.34
2017-10-17T05:55:53.814Z,101909.58
2017-10-17T05:58:22.257Z,101897.02
2017-10-17T06:00:50.730Z,101905.61
2017-10-17T06:03:19.177Z,101899.13
2017-10-17T06:05:48.407Z,101903.86
2017-10-17T06:08:16.867Z,101904.73
2017-10-17T06:10:46.097Z,101911.17
2017-10-17T06:13:14.560Z,101910.30
2017-10-17T06:15:43.062Z,101903.80
2017-10-17T06:18:11.529Z,101910.24
2017-10-17T06:20:39.993Z,101909.06
2017-10-17T06:23:09.321Z,101911.61
2017-10-17T06:25:37.760Z,101907.28
2017-10-17T06:28:06.999Z,101903.38
2017-10-17T06:30:35.489Z,101905.83
2017-10-17T06:33:04.074Z,101903.54
2017-10-17T06:35:32.551Z,101904.76
2017-10-17T06:38:01.021Z,101907.72
2017-10-17T06:40:29.529Z,101912.83
2017-10-17T06:42:57.993Z,101916.67
2017-10-17T06:45:26.441Z,101919.69
2017-10-17T06:47:55.698Z,101921.36
2017-10-17T06:50:24.171Z,101925.25
2017-10-17T06:52:52.609Z,101932.97
2017-10-17T06:55:21.943Z,101928.20
2017-10-17T06:57:50.383Z,101927.27
2017-10-17T07:00:19.615Z,101928.91
2017-10-17T07:02:48.060Z,101941.33
2017-10-17T07:05:17.293Z,101933.45
2017-10-17T07:07:46.035Z,101934.22
2017-10-17T07:10:14.507Z,101925.83
2017-10-17T07:12:42.955Z,101937.92
2017-10-17T07:15:11.422Z,101927.84
2017-10-17T07:17:39.865Z,101929.95
2017-10-17T07:20:08.346Z,101932.03
2017-10-17T07:22:36.884Z,101938.05
2017-10-17T07:25:05.352Z,101940.21
2017-10-17T07:27:33.855Z,101947.13
2017-10-17T07:30:02.321Z,101941.05
2017-10-17T07:32:30.785Z,101947.92
2017-10-17T07:34:59.993Z,101954.87
2017-10-17T07:37:28.498Z,101954.87
2017-10-17T07:39:56.950Z,101959.20
2017-10-17T07:42:25.465Z,101945.13
2017-10-17T07:44:53.911Z,101952.48
2017-10-17T07:47:23.149Z,101954.94
2017-10-17T07:49:51.627Z,101952.24
2017-10-17T07:52:20.093Z,101947.83
2017-10-17T07:54:48.538Z,101953.83
2017-10-17T07:57:17.779Z,101950.78
2017-10-17T07:59:46.221Z,101956.92
2017-10-17T08:02:15.450Z,101956.77
2017-10-17T08:04:43.889Z,101952.78
2017-10-17T08:07:12.357Z,101952.55
2017-10-17T08:09:40.798Z,101952.45
2017-10-17T08:12:09.269Z,101948.02
2017-10-17T08:14:37.705Z,101953.93
2017-10-17T08:17:06.254Z,101961.61
2017-10-17T08:19:34.725Z,101955.85
2017-10-17T08:22:03.222Z,101963.05
2017-10-17T08:24:31.691Z,101952.86
2017-10-17T08:27:00.134Z,101949.58
2017-10-17T08:29:29.373Z,101955.45
2017-10-17T08:31:57.871Z,101951.37
2017-10-17T08:34:26.445Z,101943.84
2017-10-17T08:36:54.920Z,101943.20
2017-10-17T08:39:23.416Z,101948.65
2017-10-17T08:41:51.857Z,101941.42
2017-10-17T08:44:21.193Z,101939.97
2017-10-17T08:46:49.682Z,101937.23
2017-10-17T08:49:18.978Z,101937.14
2017-10-17T08:51:47.426Z,101940.84
2017-10-17T08:54:16.658Z,101941.98
2017-10-17T08:56:45.106Z,101945.25
2017-10-17T08:59:14.314Z,101941.83
2017-10-17T09:01:42.793Z,101947.61
2017-10-17T09:04:11.244Z,101941.81
2017-10-17T09:06:39.709Z,101937.06
2017-10-17T09:09:08.149Z,101931.67
2017-10-17T09:11:36.618Z,101938.80
2017-10-17T09:14:05.830Z,101934.13
2017-10-17T09:16:34.302Z,101929.03
2017-10-17T09:19:02.748Z,101927.94
2017-10-17T09:21:31.222Z,101927.50
2017-10-17T09:23:59.676Z,101924.27
2017-10-17T09:26:28.136Z,101931.89
2017-10-17T09:28:56.640Z,101921.63
2017-10-17T09:31:25.224Z,101927.39
2017-10-17T09:33:53.670Z,101931.53
2017-10-17T09:36:22.874Z,101932.98
2017-10-17T09:38:52.205Z,101934.47
2017-10-17T09:41:20.645Z,101927.56
2017-10-17T09:43:49.873Z,101929.41
2017-10-17T09:46:18.316Z,101929.88
2017-10-17T09:48:47.550Z,101913.21
2017-10-17T09:51:15.994Z,101916.02
2017-10-17T09:53:44.457Z,101916.59
2017-10-17T09:56:12.898Z,101919.16
2017-10-17T09:58:41.361Z,101915.16
2017-10-17T10:01:10.572Z,101914.68
2017-10-17T10:03:39.037Z,101913.25
2017-10-17T10:06:08.248Z,101915.95
2017-10-17T10:08:36.750Z,101912.22
2017-10-17T10:11:05.189Z,101907.50
2017-10-17T10:13:34.405Z,101906.08
2017-10-17T10:16:03.638Z,101901.21
2017-10-17T10:18:32.078Z,101905.73
2017-10-17T10:21:01.315Z,101899.09
2017-10-17T10:23:29.761Z,101899.17
2017-10-17T10:25:58.998Z,101896.33
2017-10-17T10:28:27.441Z,101895.70
2017-10-17T10:30:56.679Z,101891.56
2017-10-17T10:33:25.124Z,101887.06
2017-10-17T10:35:54.355Z,101883.06
2017-10-17T10:38:22.801Z,101886.78
2017-10-17T10:40:52.035Z,101883.84
2017-10-17T10:43:20.526Z,101885.85
2017-10-17T10:45:49.097Z,101883.53
2017-10-17T10:48:17.554Z,101880.78
2017-10-17T10:50:46.890Z,101874.25
2017-10-17T10:53:15.329Z,101882.64
2017-10-17T10:55:44.566Z,101871.61
2017-10-17T10:58:13.042Z,101867.17
2017-10-17T11:00:41.482Z,101856.72
2017-10-17T11:03:10.845Z,101860.78
2017-10-17T11:05:39.285Z,101863.45
2017-10-17T11:08:08.610Z,101860.33
2017-10-17T11:10:37.058Z,101859.52
2017-10-17T11:13:06.289Z,101859.78
2017-10-17T11:15:34.730Z,101856.95
2017-10-17T11:18:03.961Z,101851.36
2017-10-17T11:20:32.401Z,101852.52
2017-10-17T11:23:00.861Z,101849.53
2017-10-17T11:25:29.300Z,101841.19
2017-10-17T11:27:57.761Z,101841.47
2017-10-17T11:30:26.974Z,101840.84
2017-10-17T11:32:55.441Z,101834.55
2017-10-17T11:35:24.654Z,101827.95
2017-10-17T11:37:53.121Z,101838.58
2017-10-17T11:40:40.186Z,101827.15
2017-10-17T11:43:26.419Z,101829.17
2017-10-17T11:45:54.870Z,101824.22
2017-10-17T11:48:23.341Z,101820.28
2017-10-17T11:50:51.814Z,101821.31
2017-10-17T11:53:20.265Z,101823.82
2017-10-17T11:55:49.494Z,101811.85
2017-10-17T11:58:17.933Z,101810.69
2017-10-17T12:00:47.191Z,101810.54
2017-10-17T12:03:15.666Z,101813.30
2017-10-17T12:05:44.133Z,101812.61
2017-10-17T12:08:12.632Z,101811.81
2017-10-17T12:10:41.097Z,101801.06
2017-10-17T12:13:09.543Z,101798.34
2017-10-17T12:15:38.783Z,101800.33
2017-10-17T12:18:07.234Z,101801.18
2017-10-17T12:20:36.465Z,101807.09
2017-10-17T12:23:05.065Z,101800.48
2017-10-17T12:25:33.552Z,101801.19
2017-10-17T12:28:02.031Z,101794.50
2017-10-17T12:30:30.474Z,101794.81
2017-10-17T12:32:59.711Z,101784.67
2017-10-17T12:35:28.153Z,101785.19
2017-10-17T12:37:57.390Z,101782.19
2017-10-17T12:40:25.833Z,101771.09
2017-10-17T12:42:55.173Z,101773.80
2017-10-17T12:45:23.618Z,101773.68
2017-10-17T12:47:52.955Z,101773.16
2017-10-17T12:50:21.439Z,101768.66
2017-10-17T12:52:49.901Z,101774.05
2017-10-17T12:55:18.354Z,101766.23
2017-10-17T12:57:47.586Z,101766.27
2017-10-17T13:00:16.029Z,101772.97
2017-10-17T13:02:45.266Z,101768.22
2017-10-17T13:05:13.763Z,101765.42
2017-10-17T13:07:42.230Z,101764.68
2017-10-17T13:10:10.674Z,101756.08
2017-10-17T13:12:39.885Z,101759.98
2017-10-17T13:15:09.126Z,101762.82
2017-10-17T13:17:37.565Z,101765.23
2017-10-17T13:20:06.796Z,101764.00
2017-10-17T13:22:35.291Z,101756.77
2017-10-17T13:25:03.758Z,101766.74
2017-10-17T13:27:32.201Z,101761.13
2017-10-17T13:30:01.510Z,101761.13
2017-10-17T13:32:30.722Z,101756.50
2017-10-17T13:34:59.233Z,101749.81
2017-10-17T13:37:27.682Z,101751.28
2017-10-17T13:39:57.008Z,101750.38
2017-10-17T13:42:25.449Z,101754.08
2017-10-17T13:44:54.685Z,101752.03
2017-10-17T13:47:23.127Z,101743.38
2017-10-17T13:49:52.386Z,101747.64
2017-10-17T13:52:20.837Z,101744.17
2017-10-17T13:54:49.280Z,101739.88
2017-10-17T13:57:17.824Z,101746.48
2017-10-17T13:59:46.301Z,101743.95
2017-10-17T14:02:14.778Z,101738.12
2017-10-17T14:04:43.270Z,101740.52
2017-10-17T14:07:11.856Z,101733.05
2017-10-17T14:09:40.344Z,101736.09
2017-10-17T14:12:08.815Z,101737.52
2017-10-17T14:14:37.270Z,101734.11
2017-10-17T14:17:06.507Z,101729.09
2017-10-17T14:19:34.973Z,101731.34
2017-10-17T14:22:03.470Z,101733.51
2017-10-17T14:24:31.912Z,101731.06
2017-10-17T14:27:01.151Z,101733.80
2017-10-17T14:29:29.622Z,101728.84
2017-10-17T14:31:58.091Z,101732.02
2017-10-17T14:34:26.529Z,101727.70
2017-10-17T14:36:55.067Z,101729.72
2017-10-17T14:39:23.525Z,101729.72
2017-10-17T14:41:52.728Z,101730.37
2017-10-17T14:44:21.239Z,101730.51
2017-10-17T14:46:49.714Z,101728.94
2017-10-17T14:49:18.181Z,101727.73
2017-10-17T14:51:46.637Z,101727.94
2017-10-17T14:54:15.883Z,101726.05
2017-10-17T14:56:44.359Z,101725.38
2017-10-17T14:59:12.829Z,101728.87
2017-10-17T15:01:41.326Z,101726.51
2017-10-17T15:04:09.903Z,101727.50
2017-10-17T15:06:38.346Z,101729.83
2017-10-17T15:09:07.573Z,101717.12
2017-10-17T15:11:36.018Z,101725.20
2017-10-17T15:14:05.252Z,101725.84
2017-10-17T15:16:33.707Z,101722.55
2017-10-17T15:19:03.050Z,101716.33
2017-10-17T15:21:31.538Z,101717.34
2017-10-17T15:23:59.978Z,101716.16
2017-10-17T15:26:29.298Z,101709.88
2017-10-17T15:28:57.737Z,101709.21
2017-10-17T15:31:26.286Z,101708.61
2017-10-17T15:33:54.734Z,101707.13
2017-10-17T15:36:23.962Z,101702.01
2017-10-17T15:38:52.401Z,101695.65
2017-10-17T15:41:21.743Z,101698.27
2017-10-17T15:43:50.186Z,101695.98
2017-10-17T15:46:19.413Z,101697.78
2017-10-17T15:48:47.852Z,101692.30
2017-10-17T15:51:16.317Z,101694.66
2017-10-17T15:53:44.753Z,101693.33
2017-10-17T15:56:13.255Z,101693.10
2017-10-17T15:58:41.852Z,101696.84
2017-10-17T16:01:10.299Z,101698.81
2017-10-17T16:03:38.766Z,101694.62
2017-10-17T16:06:07.969Z,101691.80
2017-10-17T16:08:37.203Z,101697.72
2017-10-17T16:11:05.642Z,101689.53
2017-10-17T16:13:34.874Z,101706.50
2017-10-17T16:16:03.313Z,101690.12
2017-10-17T16:18:32.549Z,101695.46
2017-10-17T16:21:00.998Z,101697.23
2017-10-17T16:23:30.230Z,101699.16
2017-10-17T16:25:58.676Z,101697.45
2017-10-17T16:28:27.908Z,101690.95
2017-10-17T16:30:56.345Z,101690.19
2017-10-17T16:33:24.821Z,101689.00
2017-10-17T16:35:53.269Z,101689.59
2017-10-17T16:38:21.717Z,101681.48
2017-10-17T16:40:51.051Z,101685.84
2017-10-17T16:43:19.510Z,101684.64
2017-10-17T16:45:47.985Z,101681.83
2017-10-17T16:48:16.493Z,101687.16
2017-10-17T16:50:44.965Z,101691.12
2017-10-17T16:53:13.458Z,101688.30
2017-10-17T16:55:41.919Z,101694.14
2017-10-17T16:58:10.374Z,101691.74
2017-10-17T17:00:39.749Z,101690.65
2017-10-17T17:03:08.192Z,101701.41
2017-10-17T17:05:36.657Z,101698.19
2017-10-17T17:08:05.865Z,101699.71
2017-10-17T17:10:34.338Z,101702.52
2017-10-17T17:13:03.545Z,101700.68
2017-10-17T17:15:32.155Z,101699.92
2017-10-17T17:18:00.613Z,101695.89
2017-10-17T17:20:29.053Z,101701.64
2017-10-17T17:22:57.600Z,101703.47
2017-10-17T17:25:26.041Z,101701.38
2017-10-17T17:27:55.269Z,101697.05
2017-10-17T17:30:23.773Z,101698.45
2017-10-17T17:32:52.343Z,101706.73
2017-10-17T17:35:20.785Z,101705.55
2017-10-17T17:37:50.014Z,101710.86
2017-10-17T17:40:18.512Z,101702.00
2017-10-17T17:42:46.978Z,101707.26
2017-10-17T17:45:15.425Z,101699.89
2017-10-17T17:47:44.654Z,101697.21
2017-10-17T17:50:13.099Z,101702.44
2017-10-17T17:52:41.629Z,101697.75
2017-10-17T17:55:10.126Z,101702.64
2017-10-17T17:57:38.596Z,101701.84
2017-10-17T18:00:07.052Z,101702.83
2017-10-17T18:02:36.381Z,101698.55
2017-10-17T18:05:04.821Z,101695.38
2017-10-17T18:07:34.062Z,101695.79
2017-10-17T18:10:02.515Z,101694.50
2017-10-17T18:12:31.731Z,101690.73
2017-10-17T18:15:00.223Z,101689.05
2017-10-17T18:17:28.714Z,101686.97
2017-10-17T18:19:57.182Z,101693.14
2017-10-17T18:22:25.680Z,101695.75
2017-10-17T18:24:54.145Z,101689.00
2017-10-17T18:27:22.634Z,101689.03
2017-10-17T18:29:51.217Z,101695.08
2017-10-17T18:32:19.654Z,101689.64
2017-10-17T18:34:48.886Z,101690.09
2017-10-17T18:37:17.332Z,101688.84
2017-10-17T18:39:46.571Z,101690.42
2017-10-17T18:42:15.025Z,101693.90
2017-10-17T18:44:44.234Z,101695.20
2017-10-17T18:47:12.747Z,101696.61
2017-10-17T18:49:41.199Z,101692.89
2017-10-17T18:52:09.704Z,101692.81
2017-10-17T18:54:38.161Z,101687.26
2017-10-17T18:57:07.393Z,101694.37
2017-10-17T18:59:35.874Z,101689.25
2017-10-17T19:02:04.414Z,101692.32
2017-10-17T19:04:33.658Z,101694.11
2017-10-17T19:07:02.238Z,101692.41
2017-10-17T19:09:30.682Z,101696.74
2017-10-17T19:11:59.922Z,101691.08
2017-10-17T19:14:28.711Z,101691.25
2017-10-17T19:16:57.193Z,101692.14
2017-10-17T19:19:25.671Z,101688.33
2017-10-17T19:21:54.115Z,101689.18
2017-10-17T19:24:23.459Z,101683.73
2017-10-17T19:26:51.900Z,101683.23
2017-10-17T19:29:21.140Z,101689.36
2017-10-17T19:31:49.582Z,101683.80
2017-10-17T19:34:18.823Z,101690.25
2017-10-17T19:36:47.262Z,101688.51
2017-10-17T19:39:16.489Z,101683.05
2017-10-17T19:41:44.938Z,101681.76
2017-10-17T19:44:14.288Z,101682.94
2017-10-17T19:46:42.761Z,101687.56
2017-10-17T19:49:11.250Z,101685.39
2017-10-17T19:51:39.708Z,101693.09
2017-10-17T19:54:08.174Z,101683.83
2017-10-17T19:56:37.406Z,101686.32
2017-10-17T19:59:05.882Z,101682.34
2017-10-17T20:01:34.377Z,101674.34
2017-10-17T20:04:02.846Z,101677.34
2017-10-17T20:06:31.334Z,101683.89
2017-10-17T20:08:59.805Z,101681.41
2017-10-17T20:11:28.306Z,101682.86
2017-10-17T20:13:56.753Z,101681.56
2017-10-17T20:16:26.090Z,101686.35
2017-10-17T20:18:54.536Z,101690.48
2017-10-17T20:21:23.771Z,101699.66
2017-10-17T20:23:52.218Z,101697.11
2017-10-17T20:26:20.727Z,101696.77
2017-10-17T20:28:49.165Z,101692.06
2017-10-17T20:31:18.393Z,101691.80
2017-10-17T20:33:46.894Z,101697.95
2017-10-17T20:36:15.365Z,101691.95
2017-10-17T20:38:43.810Z,101695.91
2017-10-17T20:41:13.159Z,101692.00
2017-10-17T20:43:41.601Z,101696.42
2017-10-17T20:46:10.829Z,101692.63
2017-10-17T20:48:39.269Z,101687.53
2017-10-17T20:51:08.514Z,101691.41
2017-10-17T20:53:36.985Z,101689.41
2017-10-17T20:56:05.481Z,101689.47
2017-10-17T20:58:33.941Z,101686.52
2017-10-17T21:01:02.450Z,101695.26
2017-10-17T21:03:30.927Z,101684.90
2017-10-17T21:05:59.407Z,101691.91
2017-10-17T21:08:27.877Z,101691.52
2017-10-17T21:10:56.318Z,101696.31
2017-10-17T21:13:24.786Z,101702.81
2017-10-17T21:15:53.342Z,101706.48
2017-10-17T21:18:21.801Z,101709.09
2017-10-17T21:20:50.299Z,101706.92
2017-10-17T21:23:18.765Z,101703.02
2017-10-17T21:25:47.264Z,101706.15
2017-10-17T21:28:15.711Z,101702.31
2017-10-17T21:30:44.941Z,101697.98
2017-10-17T21:33:13.435Z,101695.99
2017-10-17T21:35:41.897Z,101704.64
2017-10-17T21:38:10.362Z,101702.47
2017-10-17T21:40:39.692Z,101699.94
2017-10-17T21:43:08.149Z,101703.48
2017-10-17T21:45:36.613Z,101695.73
2017-10-17T21:48:05.817Z,101696.72
2017-10-17T21:50:35.153Z,101689.46
2017-10-17T21:53:03.650Z,101685.72
2017-10-17T21:55:32.201Z,101682.75
2017-10-17T21:58:00.711Z,101673.61
2017-10-17T22:00:46.846Z,101680.09
2017-10-17T22:03:15.297Z,101679.71
2017-10-17T22:05:43.763Z,101683.70
2017-10-17T22:08:12.253Z,101675.56
2017-10-17T22:10:40.693Z,101671.22
2017-10-17T22:13:10.035Z,101654.07
2017-10-17T22:15:38.480Z,101653.27
2017-10-17T22:18:07.818Z,101653.33
2017-10-17T22:20:36.261Z,101658.05
2017-10-17T22:23:05.603Z,101664.59
2017-10-17T22:25:34.050Z,101661.55
2017-10-17T22:28:02.560Z,101665.09
2017-10-17T22:30:31.010Z,101665.89
2017-10-17T22:33:00.242Z,101658.16
2017-10-17T22:35:28.699Z,101655.57
2017-10-17T22:37:57.131Z,101642.61
2017-10-17T22:40:25.686Z,101636.13
2017-10-17T22:42:54.137Z,101634.95
2017-10-17T22:45:23.476Z,101638.34
2017-10-17T22:47:51.965Z,101629.77
2017-10-17T22:50:20.433Z,101641.40
2017-10-17T22:52:48.877Z,101638.41
2017-10-17T22:55:18.212Z,101636.69
2017-10-17T22:57:46.653Z,101632.39
2017-10-17T23:00:15.900Z,101632.37
2017-10-17T23:02:44.354Z,101624.61
2017-10-17T23:05:12.837Z,101631.50
2017-10-17T23:07:41.288Z,101631.99
2017-10-17T23:10:09.761Z,101630.70
2017-10-17T23:12:38.201Z,101635.89
2017-10-17T23:15:06.694Z,101629.40
2017-10-17T23:17:52.829Z,101627.27
2017-10-17T23:20:36.216Z,101625.09
2017-10-17T23:23:04.699Z,101627.75
2017-10-17T23:25:33.291Z,101623.86
2017-10-17T23:28:01.747Z,101617.83
2017-10-17T23:30:30.200Z,101615.27
2017-10-17T23:32:59.547Z,101613.56
2017-10-17T23:35:28.030Z,101612.33
2017-10-17T23:37:56.504Z,101628.32
2017-10-17T23:40:24.945Z,101624.88
2017-10-17T23:42:54.177Z,101625.38
2017-10-17T23:45:22.623Z,101622.42
2017-10-17T23:47:51.099Z,101616.37
2017-10-17T23:50:19.547Z,101617.27
2017-10-17T23:52:48.019Z,101614.33
2017-10-17T23:55:16.472Z,101610.45
2017-10-17T23:57:45.705Z,101613.11
